sensor_id;sensor_type;location;lat;lon;timestamp;P1;durP1;ratioP1;P2;durP2;ratioP2
22673;SDS011;11504;43.334;21.918;2023-03-04T00:03:24;49.0;;;44.0;;
22673;SDS011;11504;43.334;21.918;2023-03-04T00:08:02;42.0;;;38.0;;
22673;SDS011;11504;43.334;21.918;2023-03-04T00:12:39;42.0;;;38.0;;
22673;SDS011;11504;43.334;21.918;2023-03-04T00:17:15;42.0;;;38.0;;
22673;SDS011;11504;43.334;21.918;2023-03-04T00:21:52;34.0;;;33.0;;
22673;SDS011;11504;43.334;21.918;2023-03-04T00:26:28;34.0;;;33.0;;
22673;SDS011;11504;43.334;21.918;2023-03-04T00:31:05;34.0;;;32.0;;
22673;SDS011;11504;43.334;21.918;2023-03-04T00:35:41;34.0;;;32.0;;
22673;SDS011;11504;43.334;21.918;2023-03-04T00:40:18;34.0;;;32.0;;
22673;SDS011;11504;43.334;21.918;2023-03-04T00:44:55;34.0;;;32.0;;
22673;SDS011;11504;43.334;21.918;2023-03-04T00:49:31;30.0;;;28.0;;
22673;SDS011;11504;43.334;21.918;2023-03-04T00:54:08;30.0;;;28.0;;
22673;SDS011;11504;43.334;21.918;2023-03-04T00:58:45;25.0;;;24.0;;
22673;SDS011;11504;43.334;21.918;2023-03-04T01:03:22;25.0;;;24.0;;
22673;SDS011;11504;43.334;21.918;2023-03-04T01:07:59;28.0;;;28.0;;
22673;SDS011;11504;43.334;21.918;2023-03-04T01:12:36;28.0;;;28.0;;
22673;SDS011;11504;43.334;21.918;2023-03-04T01:17:13;28.0;;;28.0;;
22673;SDS011;11504;43.334;21.918;2023-03-04T01:21:50;32.0;;;31.0;;
22673;SDS011;11504;43.334;21.918;2023-03-04T01:26:27;32.0;;;31.0;;
22673;SDS011;11504;43.334;21.918;2023-03-04T01:31:05;36.0;;;34.0;;
22673;SDS011;11504;43.334;21.918;2023-03-04T01:35:42;36.0;;;34.0;;
22673;SDS011;11504;43.334;21.918;2023-03-04T01:40:19;40.0;;;38.0;;
22673;SDS011;11504;43.334;21.918;2023-03-04T01:44:56;40.0;;;38.0;;
22673;SDS011;11504;43.334;21.918;2023-03-04T01:49:33;40.0;;;38.0;;
22673;SDS011;11504;43.334;21.918;2023-03-04T01:54:09;40.0;;;38.0;;
22673;SDS011;11504;43.334;21.918;2023-03-04T01:59:11;41.0;;;39.0;;
22673;SDS011;11504;43.334;21.918;2023-03-04T02:03:52;41.0;;;39.0;;
22673;SDS011;11504;43.334;21.918;2023-03-04T02:08:29;36.0;;;34.0;;
22673;SDS011;11504;43.334;21.918;2023-03-04T02:13:06;36.0;;;34.0;;
22673;SDS011;11504;43.334;21.918;2023-03-04T02:17:44;36.0;;;34.0;;
22673;SDS011;11504;43.334;21.918;2023-03-04T02:22:21;31.0;;;30.0;;
22673;SDS011;11504;43.334;21.918;2023-03-04T02:26:58;31.0;;;30.0;;
22673;SDS011;11504;43.334;21.918;2023-03-04T02:31:40;32.0;;;31.0;;
22673;SDS011;11504;43.334;21.918;2023-03-04T02:36:23;32.0;;;31.0;;
22673;SDS011;11504;43.334;21.918;2023-03-04T02:41:08;34.0;;;32.0;;
22673;SDS011;11504;43.334;21.918;2023-03-04T02:45:55;34.0;;;32.0;;
22673;SDS011;11504;43.334;21.918;2023-03-04T02:50:41;41.0;;;37.0;;
22673;SDS011;11504;43.334;21.918;2023-03-04T02:55:25;41.0;;;37.0;;
22673;SDS011;11504;43.334;21.918;2023-03-04T03:00:04;48.0;;;42.0;;
22673;SDS011;11504;43.334;21.918;2023-03-04T03:04:43;48.0;;;42.0;;
22673;SDS011;11504;43.334;21.918;2023-03-04T03:09:20;48.0;;;43.0;;
22673;SDS011;11504;43.334;21.918;2023-03-04T03:13:57;48.0;;;43.0;;
22673;SDS011;11504;43.334;21.918;2023-03-04T03:18:34;47.0;;;44.0;;
22673;SDS011;11504;43.334;21.918;2023-03-04T03:23:10;47.0;;;44.0;;
22673;SDS011;11504;43.334;21.918;2023-03-04T03:27:48;47.0;;;44.0;;
22673;SDS011;11504;43.334;21.918;2023-03-04T03:32:25;46.0;;;42.0;;
22673;SDS011;11504;43.334;21.918;2023-03-04T03:37:03;46.0;;;42.0;;
22673;SDS011;11504;43.334;21.918;2023-03-04T03:41:40;45.0;;;41.0;;
22673;SDS011;11504;43.334;21.918;2023-03-04T03:46:18;45.0;;;41.0;;
22673;SDS011;11504;43.334;21.918;2023-03-04T03:50:55;48.0;;;44.0;;
22673;SDS011;11504;43.334;21.918;2023-03-04T03:55:32;48.0;;;44.0;;
22673;SDS011;11504;43.334;21.918;2023-03-04T04:00:13;50.0;;;46.0;;
22673;SDS011;11504;43.334;21.918;2023-03-04T04:04:53;50.0;;;46.0;;
22673;SDS011;11504;43.334;21.918;2023-03-04T04:09:29;50.0;;;45.0;;
22673;SDS011;11504;43.334;21.918;2023-03-04T04:14:07;50.0;;;45.0;;
22673;SDS011;11504;43.334;21.918;2023-03-04T04:18:46;51.0;;;44.0;;
22673;SDS011;11504;43.334;21.918;2023-03-04T04:23:23;51.0;;;44.0;;
22673;SDS011;11504;43.334;21.918;2023-03-04T04:27:59;51.0;;;44.0;;
22673;SDS011;11504;43.334;21.918;2023-03-04T04:32:36;50.0;;;42.0;;
22673;SDS011;11504;43.334;21.918;2023-03-04T04:37:12;50.0;;;42.0;;
22673;SDS011;11504;43.334;21.918;2023-03-04T04:41:49;49.0;;;40.0;;
22673;SDS011;11504;43.334;21.918;2023-03-04T04:46:26;49.0;;;40.0;;
22673;SDS011;11504;43.334;21.918;2023-03-04T04:51:03;51.0;;;44.0;;
22673;SDS011;11504;43.334;21.918;2023-03-04T04:55:40;51.0;;;44.0;;
22673;SDS011;11504;43.334;21.918;2023-03-04T05:00:19;53.0;;;47.0;;
22673;SDS011;11504;43.334;21.918;2023-03-04T05:04:56;53.0;;;47.0;;
22673;SDS011;11504;43.334;21.918;2023-03-04T05:09:33;48.0;;;44.0;;
22673;SDS011;11504;43.334;21.918;2023-03-04T05:14:10;48.0;;;44.0;;
22673;SDS011;11504;43.334;21.918;2023-03-04T05:18:46;44.0;;;40.0;;
22673;SDS011;11504;43.334;21.918;2023-03-04T05:23:25;44.0;;;40.0;;
22673;SDS011;11504;43.334;21.918;2023-03-04T05:28:09;46.0;;;40.0;;
22673;SDS011;11504;43.334;21.918;2023-03-04T05:32:47;46.0;;;40.0;;
22673;SDS011;11504;43.334;21.918;2023-03-04T05:37:24;46.0;;;40.0;;
22673;SDS011;11504;43.334;21.918;2023-03-04T05:42:00;47.0;;;40.0;;
22673;SDS011;11504;43.334;21.918;2023-03-04T05:46:36;47.0;;;40.0;;
22673;SDS011;11504;43.334;21.918;2023-03-04T05:51:13;48.0;;;42.0;;
22673;SDS011;11504;43.334;21.918;2023-03-04T05:55:50;48.0;;;42.0;;
22673;SDS011;11504;43.334;21.918;2023-03-04T06:00:27;49.0;;;43.0;;
22673;SDS011;11504;43.334;21.918;2023-03-04T06:05:12;49.0;;;43.0;;
22673;SDS011;11504;43.334;21.918;2023-03-04T06:09:49;50.0;;;46.0;;
22673;SDS011;11504;43.334;21.918;2023-03-04T06:14:26;50.0;;;46.0;;
22673;SDS011;11504;43.334;21.918;2023-03-04T06:19:03;51.0;;;48.0;;
22673;SDS011;11504;43.334;21.918;2023-03-04T06:23:39;51.0;;;48.0;;
22673;SDS011;11504;43.334;21.918;2023-03-04T06:28:16;51.0;;;46.0;;
22673;SDS011;11504;43.334;21.918;2023-03-04T06:32:53;51.0;;;46.0;;
22673;SDS011;11504;43.334;21.918;2023-03-04T06:37:30;51.0;;;46.0;;
22673;SDS011;11504;43.334;21.918;2023-03-04T06:42:07;51.0;;;45.0;;
22673;SDS011;11504;43.334;21.918;2023-03-04T06:46:44;51.0;;;45.0;;
22673;SDS011;11504;43.334;21.918;2023-03-04T06:51:21;54.0;;;49.0;;
22673;SDS011;11504;43.334;21.918;2023-03-04T06:55:57;54.0;;;49.0;;
22673;SDS011;11504;43.334;21.918;2023-03-04T07:00:34;56.0;;;53.0;;
22673;SDS011;11504;43.334;21.918;2023-03-04T07:05:10;56.0;;;53.0;;
22673;SDS011;11504;43.334;21.918;2023-03-04T07:09:47;58.0;;;53.0;;
22673;SDS011;11504;43.334;21.918;2023-03-04T07:14:23;58.0;;;53.0;;
22673;SDS011;11504;43.334;21.918;2023-03-04T07:19:00;61.0;;;53.0;;
22673;SDS011;11504;43.334;21.918;2023-03-04T07:23:37;61.0;;;53.0;;
22673;SDS011;11504;43.334;21.918;2023-03-04T07:28:14;56.0;;;46.0;;
22673;SDS011;11504;43.334;21.918;2023-03-04T07:32:50;56.0;;;46.0;;
22673;SDS011;11504;43.334;21.918;2023-03-04T07:37:28;56.0;;;46.0;;
22673;SDS011;11504;43.334;21.918;2023-03-04T07:42:05;52.0;;;38.0;;
22673;SDS011;11504;43.334;21.918;2023-03-04T07:46:41;52.0;;;38.0;;
22673;SDS011;11504;43.334;21.918;2023-03-04T07:51:23;54.0;;;40.0;;
22673;SDS011;11504;43.334;21.918;2023-03-04T07:56:07;54.0;;;40.0;;
22673;SDS011;11504;43.334;21.918;2023-03-04T08:00:51;57.0;;;41.0;;
22673;SDS011;11504;43.334;21.918;2023-03-04T08:05:28;57.0;;;41.0;;
22673;SDS011;11504;43.334;21.918;2023-03-04T08:10:07;53.0;;;40.0;;
22673;SDS011;11504;43.334;21.918;2023-03-04T08:14:46;53.0;;;40.0;;
22673;SDS011;11504;43.334;21.918;2023-03-04T08:19:23;49.0;;;40.0;;
22673;SDS011;11504;43.334;21.918;2023-03-04T08:24:02;49.0;;;40.0;;
22673;SDS011;11504;43.334;21.918;2023-03-04T08:28:41;44.0;;;38.0;;
22673;SDS011;11504;43.334;21.918;2023-03-04T08:33:17;44.0;;;38.0;;
22673;SDS011;11504;43.334;21.918;2023-03-04T08:37:54;44.0;;;38.0;;
22673;SDS011;11504;43.334;21.918;2023-03-04T08:42:31;40.0;;;35.0;;
22673;SDS011;11504;43.334;21.918;2023-03-04T08:47:07;40.0;;;35.0;;
22673;SDS011;11504;43.334;21.918;2023-03-04T08:51:43;40.0;;;36.0;;
22673;SDS011;11504;43.334;21.918;2023-03-04T08:56:20;40.0;;;36.0;;
22673;SDS011;11504;43.334;21.918;2023-03-04T09:01:00;39.0;;;36.0;;
22673;SDS011;11504;43.334;21.918;2023-03-04T09:05:45;39.0;;;36.0;;
22673;SDS011;11504;43.334;21.918;2023-03-04T09:10:25;44.0;;;37.0;;
22673;SDS011;11504;43.334;21.918;2023-03-04T09:15:04;44.0;;;37.0;;
22673;SDS011;11504;43.334;21.918;2023-03-04T09:19:45;48.0;;;38.0;;
22673;SDS011;11504;43.334;21.918;2023-03-04T09:24:21;48.0;;;38.0;;
22673;SDS011;11504;43.334;21.918;2023-03-04T09:29:02;46.0;;;36.0;;
22673;SDS011;11504;43.334;21.918;2023-03-04T09:33:40;46.0;;;36.0;;
22673;SDS011;11504;43.334;21.918;2023-03-04T09:38:17;43.0;;;35.0;;
22673;SDS011;11504;43.334;21.918;2023-03-04T09:43:01;43.0;;;35.0;;
22673;SDS011;11504;43.334;21.918;2023-03-04T09:47:52;43.0;;;35.0;;
22673;SDS011;11504;43.334;21.918;2023-03-04T09:53:05;44.0;;;37.0;;
22673;SDS011;11504;43.334;21.918;2023-03-04T09:58:13;44.0;;;37.0;;
22673;SDS011;11504;43.334;21.918;2023-03-04T10:03:18;46.0;;;39.0;;
22673;SDS011;11504;43.334;21.918;2023-03-04T10:08:33;44.0;;;38.0;;
22673;SDS011;11504;43.334;21.918;2023-03-04T10:13:39;44.0;;;38.0;;
22673;SDS011;11504;43.334;21.918;2023-03-04T10:18:41;43.0;;;38.0;;
22673;SDS011;11504;43.334;21.918;2023-03-04T10:23:30;43.0;;;38.0;;
22673;SDS011;11504;43.334;21.918;2023-03-04T10:28:17;43.0;;;38.0;;
22673;SDS011;11504;43.334;21.918;2023-03-04T10:32:58;39.0;;;34.0;;
22673;SDS011;11504;43.334;21.918;2023-03-04T10:37:49;39.0;;;34.0;;
22673;SDS011;11504;43.334;21.918;2023-03-04T10:42:29;35.0;;;30.0;;
22673;SDS011;11504;43.334;21.918;2023-03-04T10:47:10;35.0;;;30.0;;
22673;SDS011;11504;43.334;21.918;2023-03-04T10:51:53;36.0;;;28.0;;
22673;SDS011;11504;43.334;21.918;2023-03-04T10:56:42;36.0;;;28.0;;
22673;SDS011;11504;43.334;21.918;2023-03-04T11:01:34;36.0;;;26.0;;
22673;SDS011;11504;43.334;21.918;2023-03-04T11:06:19;36.0;;;26.0;;
22673;SDS011;11504;43.334;21.918;2023-03-04T11:10:57;32.0;;;26.0;;
22673;SDS011;11504;43.334;21.918;2023-03-04T11:15:52;32.0;;;26.0;;
22673;SDS011;11504;43.334;21.918;2023-03-04T11:20:40;28.0;;;25.0;;
22673;SDS011;11504;43.334;21.918;2023-03-04T11:25:31;28.0;;;25.0;;
22673;SDS011;11504;43.334;21.918;2023-03-04T11:30:35;27.0;;;24.0;;
22673;SDS011;11504;43.334;21.918;2023-03-04T11:35:34;27.0;;;24.0;;
22673;SDS011;11504;43.334;21.918;2023-03-04T11:40:45;26.0;;;22.0;;
22673;SDS011;11504;43.334;21.918;2023-03-04T11:46:27;26.0;;;22.0;;
22673;SDS011;11504;43.334;21.918;2023-03-04T11:52:50;26.0;;;24.0;;
22673;SDS011;11504;43.334;21.918;2023-03-04T11:58:53;27.0;;;25.0;;
22673;SDS011;11504;43.334;21.918;2023-03-04T12:04:38;27.0;;;25.0;;
22673;SDS011;11504;43.334;21.918;2023-03-04T12:09:57;27.0;;;25.0;;
22673;SDS011;11504;43.334;21.918;2023-03-04T12:15:18;27.0;;;25.0;;
22673;SDS011;11504;43.334;21.918;2023-03-04T12:30:58;36.0;;;31.0;;
22673;SDS011;11504;43.334;21.918;2023-03-04T12:36:12;36.0;;;31.0;;
22673;SDS011;11504;43.334;21.918;2023-03-04T12:41:35;36.0;;;31.0;;
22673;SDS011;11504;43.334;21.918;2023-03-04T12:47:02;36.0;;;31.0;;
22673;SDS011;11504;43.334;21.918;2023-03-04T12:52:30;33.0;;;30.0;;
22673;SDS011;11504;43.334;21.918;2023-03-04T12:57:30;33.0;;;30.0;;
22673;SDS011;11504;43.334;21.918;2023-03-04T13:03:05;30.0;;;28.0;;
22673;SDS011;11504;43.334;21.918;2023-03-04T13:08:29;30.0;;;28.0;;
22673;SDS011;11504;43.334;21.918;2023-03-04T13:13:41;30.0;;;28.0;;
22673;SDS011;11504;43.334;21.918;2023-03-04T13:18:36;29.0;;;27.0;;
22673;SDS011;11504;43.334;21.918;2023-03-04T13:23:28;29.0;;;27.0;;
22673;SDS011;11504;43.334;21.918;2023-03-04T13:28:23;29.0;;;27.0;;
22673;SDS011;11504;43.334;21.918;2023-03-04T13:33:58;28.0;;;26.0;;
22673;SDS011;11504;43.334;21.918;2023-03-04T13:38:37;28.0;;;24.0;;
22673;SDS011;11504;43.334;21.918;2023-03-04T13:43:40;28.0;;;24.0;;
22673;SDS011;11504;43.334;21.918;2023-03-04T13:48:33;32.0;;;27.0;;
22673;SDS011;11504;43.334;21.918;2023-03-04T13:53:43;32.0;;;27.0;;
22673;SDS011;11504;43.334;21.918;2023-03-04T13:58:26;32.0;;;27.0;;
22673;SDS011;11504;43.334;21.918;2023-03-04T14:03:19;35.0;;;30.0;;
22673;SDS011;11504;43.334;21.918;2023-03-04T14:08:18;35.0;;;30.0;;
22673;SDS011;11504;43.334;21.918;2023-03-04T14:13:00;36.0;;;30.0;;
22673;SDS011;11504;43.334;21.918;2023-03-04T14:17:38;36.0;;;30.0;;
22673;SDS011;11504;43.334;21.918;2023-03-04T14:22:29;36.0;;;31.0;;
22673;SDS011;11504;43.334;21.918;2023-03-04T14:27:13;36.0;;;31.0;;
22673;SDS011;11504;43.334;21.918;2023-03-04T14:31:52;38.0;;;30.0;;
22673;SDS011;11504;43.334;21.918;2023-03-04T14:36:36;38.0;;;30.0;;
22673;SDS011;11504;43.334;21.918;2023-03-04T14:41:26;39.0;;;30.0;;
22673;SDS011;11504;43.334;21.918;2023-03-04T14:46:18;39.0;;;30.0;;
22673;SDS011;11504;43.334;21.918;2023-03-04T14:51:02;39.0;;;32.0;;
22673;SDS011;11504;43.334;21.918;2023-03-04T14:55:56;39.0;;;32.0;;
22673;SDS011;11504;43.334;21.918;2023-03-04T15:00:38;39.0;;;34.0;;
22673;SDS011;11504;43.334;21.918;2023-03-04T15:05:27;39.0;;;34.0;;
22673;SDS011;11504;43.334;21.918;2023-03-04T15:10:11;38.0;;;32.0;;
22673;SDS011;11504;43.334;21.918;2023-03-04T15:14:53;38.0;;;32.0;;
22673;SDS011;11504;43.334;21.918;2023-03-04T15:19:31;37.0;;;29.0;;
22673;SDS011;11504;43.334;21.918;2023-03-04T15:24:10;37.0;;;29.0;;
22673;SDS011;11504;43.334;21.918;2023-03-04T15:28:46;40.0;;;32.0;;
22673;SDS011;11504;43.334;21.918;2023-03-04T15:33:22;40.0;;;32.0;;
22673;SDS011;11504;43.334;21.918;2023-03-04T15:38:00;40.0;;;32.0;;
22673;SDS011;11504;43.334;21.918;2023-03-04T15:42:37;44.0;;;34.0;;
22673;SDS011;11504;43.334;21.918;2023-03-04T15:47:14;44.0;;;34.0;;
22673;SDS011;11504;43.334;21.918;2023-03-04T15:51:51;43.0;;;34.0;;
22673;SDS011;11504;43.334;21.918;2023-03-04T15:56:33;43.0;;;34.0;;
22673;SDS011;11504;43.334;21.918;2023-03-04T16:01:16;42.0;;;35.0;;
22673;SDS011;11504;43.334;21.918;2023-03-04T16:05:53;42.0;;;35.0;;
22673;SDS011;11504;43.334;21.918;2023-03-04T16:10:32;40.0;;;34.0;;
22673;SDS011;11504;43.334;21.918;2023-03-04T16:15:20;40.0;;;34.0;;
22673;SDS011;11504;43.334;21.918;2023-03-04T16:19:57;39.0;;;34.0;;
22673;SDS011;11504;43.334;21.918;2023-03-04T16:24:34;39.0;;;34.0;;
22673;SDS011;11504;43.334;21.918;2023-03-04T16:29:10;40.0;;;34.0;;
22673;SDS011;11504;43.334;21.918;2023-03-04T16:33:47;40.0;;;34.0;;
22673;SDS011;11504;43.334;21.918;2023-03-04T16:38:31;40.0;;;34.0;;
22673;SDS011;11504;43.334;21.918;2023-03-04T16:43:12;40.0;;;33.0;;
22673;SDS011;11504;43.334;21.918;2023-03-04T16:47:50;40.0;;;33.0;;
22673;SDS011;11504;43.334;21.918;2023-03-04T16:52:32;46.0;;;39.0;;
22673;SDS011;11504;43.334;21.918;2023-03-04T16:57:09;46.0;;;39.0;;
22673;SDS011;11504;43.334;21.918;2023-03-04T17:01:48;51.0;;;45.0;;
22673;SDS011;11504;43.334;21.918;2023-03-04T17:06:25;51.0;;;45.0;;
22673;SDS011;11504;43.334;21.918;2023-03-04T17:11:03;53.0;;;46.0;;
22673;SDS011;11504;43.334;21.918;2023-03-04T17:15:41;53.0;;;46.0;;
22673;SDS011;11504;43.334;21.918;2023-03-04T17:20:19;55.0;;;48.0;;
22673;SDS011;11504;43.334;21.918;2023-03-04T17:24:57;55.0;;;48.0;;
22673;SDS011;11504;43.334;21.918;2023-03-04T17:29:34;56.0;;;46.0;;
22673;SDS011;11504;43.334;21.918;2023-03-04T17:34:11;56.0;;;46.0;;
22673;SDS011;11504;43.334;21.918;2023-03-04T17:38:48;56.0;;;43.0;;
22673;SDS011;11504;43.334;21.918;2023-03-04T17:43:25;56.0;;;43.0;;
22673;SDS011;11504;43.334;21.918;2023-03-04T17:48:01;56.0;;;43.0;;
22673;SDS011;11504;43.334;21.918;2023-03-04T17:52:38;56.0;;;47.0;;
22673;SDS011;11504;43.334;21.918;2023-03-04T17:57:15;56.0;;;47.0;;
22673;SDS011;11504;43.334;21.918;2023-03-04T18:01:51;57.0;;;51.0;;
22673;SDS011;11504;43.334;21.918;2023-03-04T18:06:28;57.0;;;51.0;;
22673;SDS011;11504;43.334;21.918;2023-03-04T18:11:05;60.0;;;50.0;;
22673;SDS011;11504;43.334;21.918;2023-03-04T18:15:42;60.0;;;50.0;;
22673;SDS011;11504;43.334;21.918;2023-03-04T18:20:19;62.0;;;49.0;;
22673;SDS011;11504;43.334;21.918;2023-03-04T18:24:55;62.0;;;49.0;;
22673;SDS011;11504;43.334;21.918;2023-03-04T18:29:32;62.0;;;49.0;;
22673;SDS011;11504;43.334;21.918;2023-03-04T18:34:10;62.0;;;49.0;;
22673;SDS011;11504;43.334;21.918;2023-03-04T18:52:36;50.0;;;44.0;;
22673;SDS011;11504;43.334;21.918;2023-03-04T18:57:14;50.0;;;44.0;;
22673;SDS011;11504;43.334;21.918;2023-03-04T19:01:54;50.0;;;44.0;;
22673;SDS011;11504;43.334;21.918;2023-03-04T19:06:33;50.0;;;44.0;;
22673;SDS011;11504;43.334;21.918;2023-03-04T19:11:10;54.0;;;46.0;;
22673;SDS011;11504;43.334;21.918;2023-03-04T19:15:47;54.0;;;46.0;;
22673;SDS011;11504;43.334;21.918;2023-03-04T19:20:26;57.0;;;48.0;;
22673;SDS011;11504;43.334;21.918;2023-03-04T19:25:07;57.0;;;48.0;;
22673;SDS011;11504;43.334;21.918;2023-03-04T19:29:48;56.0;;;48.0;;
22673;SDS011;11504;43.334;21.918;2023-03-04T19:34:25;56.0;;;48.0;;
22673;SDS011;11504;43.334;21.918;2023-03-04T19:39:02;54.0;;;48.0;;
22673;SDS011;11504;43.334;21.918;2023-03-04T19:43:41;54.0;;;48.0;;
22673;SDS011;11504;43.334;21.918;2023-03-04T19:48:18;54.0;;;48.0;;
22673;SDS011;11504;43.334;21.918;2023-03-04T19:52:58;55.0;;;48.0;;
22673;SDS011;11504;43.334;21.918;2023-03-04T19:57:35;55.0;;;48.0;;
22673;SDS011;11504;43.334;21.918;2023-03-04T20:02:12;56.0;;;47.0;;
22673;SDS011;11504;43.334;21.918;2023-03-04T20:06:50;56.0;;;47.0;;
22673;SDS011;11504;43.334;21.918;2023-03-04T20:11:29;56.0;;;46.0;;
22673;SDS011;11504;43.334;21.918;2023-03-04T20:16:09;56.0;;;46.0;;
22673;SDS011;11504;43.334;21.918;2023-03-04T20:20:46;56.0;;;46.0;;
22673;SDS011;11504;43.334;21.918;2023-03-04T20:25:24;56.0;;;46.0;;
22673;SDS011;11504;43.334;21.918;2023-03-04T20:30:01;55.0;;;46.0;;
22673;SDS011;11504;43.334;21.918;2023-03-04T20:34:37;55.0;;;46.0;;
22673;SDS011;11504;43.334;21.918;2023-03-04T20:39:13;54.0;;;45.0;;
22673;SDS011;11504;43.334;21.918;2023-03-04T20:43:51;54.0;;;45.0;;
22673;SDS011;11504;43.334;21.918;2023-03-04T20:48:27;54.0;;;45.0;;
22673;SDS011;11504;43.334;21.918;2023-03-04T20:53:04;60.0;;;49.0;;
22673;SDS011;11504;43.334;21.918;2023-03-04T20:57:41;60.0;;;49.0;;
22673;SDS011;11504;43.334;21.918;2023-03-04T21:02:18;65.0;;;53.0;;
22673;SDS011;11504;43.334;21.918;2023-03-04T21:06:54;65.0;;;53.0;;
22673;SDS011;11504;43.334;21.918;2023-03-04T21:11:32;64.0;;;52.0;;
22673;SDS011;11504;43.334;21.918;2023-03-04T21:16:15;64.0;;;52.0;;
22673;SDS011;11504;43.334;21.918;2023-03-04T21:20:52;62.0;;;51.0;;
22673;SDS011;11504;43.334;21.918;2023-03-04T21:25:29;62.0;;;51.0;;
22673;SDS011;11504;43.334;21.918;2023-03-04T21:30:11;62.0;;;50.0;;
22673;SDS011;11504;43.334;21.918;2023-03-04T21:34:51;62.0;;;50.0;;
22673;SDS011;11504;43.334;21.918;2023-03-04T21:39:33;61.0;;;49.0;;
22673;SDS011;11504;43.334;21.918;2023-03-04T21:44:11;61.0;;;49.0;;
22673;SDS011;11504;43.334;21.918;2023-03-04T21:48:48;61.0;;;49.0;;
22673;SDS011;11504;43.334;21.918;2023-03-04T21:53:24;62.0;;;50.0;;
22673;SDS011;11504;43.334;21.918;2023-03-04T21:58:00;62.0;;;50.0;;
22673;SDS011;11504;43.334;21.918;2023-03-04T22:02:37;62.0;;;50.0;;
22673;SDS011;11504;43.334;21.918;2023-03-04T22:07:14;62.0;;;50.0;;
22673;SDS011;11504;43.334;21.918;2023-03-04T22:11:51;62.0;;;51.0;;
22673;SDS011;11504;43.334;21.918;2023-03-04T22:16:34;62.0;;;51.0;;
22673;SDS011;11504;43.334;21.918;2023-03-04T22:21:18;61.0;;;52.0;;
22673;SDS011;11504;43.334;21.918;2023-03-04T22:26:06;61.0;;;52.0;;
22673;SDS011;11504;43.334;21.918;2023-03-04T22:30:51;61.0;;;52.0;;
22673;SDS011;11504;43.334;21.918;2023-03-04T22:35:28;61.0;;;52.0;;
22673;SDS011;11504;43.334;21.918;2023-03-04T22:49:25;62.0;;;51.0;;
22673;SDS011;11504;43.334;21.918;2023-03-04T22:54:03;62.0;;;51.0;;
22673;SDS011;11504;43.334;21.918;2023-03-04T22:58:41;62.0;;;51.0;;
22673;SDS011;11504;43.334;21.918;2023-03-04T23:03:18;62.0;;;51.0;;
22673;SDS011;11504;43.334;21.918;2023-03-04T23:07:55;62.0;;;51.0;;
22673;SDS011;11504;43.334;21.918;2023-03-04T23:12:33;60.0;;;52.0;;
22673;SDS011;11504;43.334;21.918;2023-03-04T23:17:10;60.0;;;52.0;;
22673;SDS011;11504;43.334;21.918;2023-03-04T23:21:47;57.0;;;52.0;;
22673;SDS011;11504;43.334;21.918;2023-03-04T23:26:31;57.0;;;52.0;;
22673;SDS011;11504;43.334;21.918;2023-03-04T23:31:13;58.0;;;52.0;;
22673;SDS011;11504;43.334;21.918;2023-03-04T23:35:49;58.0;;;52.0;;
22673;SDS011;11504;43.334;21.918;2023-03-04T23:40:26;60.0;;;53.0;;
22673;SDS011;11504;43.334;21.918;2023-03-04T23:45:07;60.0;;;53.0;;
22673;SDS011;11504;43.334;21.918;2023-03-04T23:49:46;62.0;;;52.0;;
22673;SDS011;11504;43.334;21.918;2023-03-04T23:54:24;62.0;;;52.0;;
22673;SDS011;11504;43.334;21.918;2023-03-04T23:59:00;62.0;;;52.0;;
